This is the latest recevied weather packets stored in our database for station/object WA7CUG. If no packets are shown the sender has not sent any weather packets the latest 10 day(s).
| Time | Temp. | Humidity | Pressure | Rain* | Wind** | Luminosity | Snow |
|---|---|---|---|---|---|---|---|
| 1777456059 | 7.22° C | 82% | 1022.5 hPa | 0 mm | - | 0 W/m² | - |
| 1777455755 | 7.22° C | 83% | 1022.5 hPa | 0 mm | - | 0 W/m² | - |
| 1777455452 | 7.78° C | 79% | 1022.4 hPa | 0 mm | - | 0 W/m² | - |
| 1777455148 | 7.78° C | 80% | 1022.3 hPa | 0 mm | - | 0 W/m² | - |
| 1777454846 | 8.33° C | 78% | 1022.1 hPa | 0 mm | - | 0 W/m² | - |
| 1777454541 | 8.89° C | 76% | 1022 hPa | 0 mm | - | 0 W/m² | - |
| 1777454238 | 8.33° C | 77% | 1022.3 hPa | 0 mm | - | 0 W/m² | - |
| 1777453935 | 8.33° C | 77% | 1022.3 hPa | 0 mm | - | 0 W/m² | - |
| 1777453632 | 8.33° C | 78% | 1021.9 hPa | 0 mm | - | 0 W/m² | - |
| 1777453329 | 9.44° C | 75% | 1022.1 hPa | 0 mm | - | 0 W/m² | - |
| 1777453026 | 9.44° C | 72% | 1022.1 hPa | 0 mm | - | 0 W/m² | - |
| 1777452723 | 10.56° C | 69% | 1021.9 hPa | 0 mm | - | 0 W/m² | - |
| 1777452419 | 10.56° C | 68% | 1021.9 hPa | 0 mm | - | 0 W/m² | - |
| 1777452115 | 10° C | 69% | 1021.5 hPa | 0 mm | - | 0 W/m² | - |
| 1777451810 | 10° C | 69% | 1021.7 hPa | 0 mm | - | 0 W/m² | - |
| 1777451507 | 10° C | 70% | 1021.8 hPa | 0 mm | - | 0 W/m² | - |
| 1777451202 | 10° C | 72% | 1021.7 hPa | 0 mm | - | 0 W/m² | - |
| 1777450899 | 9.44° C | 73% | 1021.6 hPa | 0 mm | - | 0 W/m² | - |
| 1777450594 | 8.89° C | 75% | 1021.6 hPa | 0 mm | - | 0 W/m² | - |
| 1777450290 | 10° C | 74% | 1021.6 hPa | 0 mm | - | 0 W/m² | - |
| 1777449987 | 9.44° C | 73% | 1021.8 hPa | 0 mm | - | 0 W/m² | - |
| 1777449683 | 9.44° C | 74% | 1021.4 hPa | 0 mm | - | 0 W/m² | - |
| 1777449379 | 9.44° C | 72% | 1021.5 hPa | 0 mm | - | 0 W/m² | - |
| 1777449075 | 9.44° C | 75% | 1021.5 hPa | 0 mm | - | 0 W/m² | - |
| 1777448771 | 9.44° C | 76% | 1021.6 hPa | 0 mm | - | 0 W/m² | - |
* Rain latest hour (hover to see other rain measurements)
** Current wind speed in m/s (hover to see current wind gust speed)